Time;durP1;ratioP1;P1;durP2;ratioP2;P2;SDS_P1;SDS_P2;PMS_P1;PMS_P2;Temp;Humidity;BMP_temperature;BMP_pressure;BME280_temperature;BME280_humidity;BME280_pressure;Samples;Min_cycle;Max_cycle;Signal;HPM_P1;HPM_P2
2023/09/17 00:00:05;;;;;;;4.00;1.85;;;27.30;27.90;;;;;;5062203;28;20037;-82
2023/09/17 00:02:34;;;;;;;2.42;1.92;;;27.50;28.00;;;;;;5068911;28;20039;-81
2023/09/17 00:05:04;;;;;;;4.80;2.00;;;27.80;27.50;;;;;;5074815;28;20528;-80
2023/09/17 00:07:34;;;;;;;3.13;2.25;;;28.00;27.50;;;;;;5074728;28;20506;-82
2023/09/17 00:10:16;;;;;;;5.57;2.10;;;28.20;27.30;;;;;;5076339;28;20083;-81
2023/09/17 00:12:44;;;;;;;3.55;1.98;;;28.30;26.50;;;;;;5059009;28;20389;-79
2023/09/17 00:15:14;;;;;;;4.22;2.10;;;28.30;26.80;;;;;;5063689;28;20082;-78
2023/09/17 00:17:44;;;;;;;2.42;2.00;;;28.50;26.80;;;;;;5056441;28;20035;-80
2023/09/17 00:20:16;;;;;;;4.28;2.22;;;28.60;27.90;;;;;;5065026;28;20037;-77
2023/09/17 00:22:43;;;;;;;3.75;2.00;;;28.40;27.80;;;;;;5060816;28;20873;-79
2023/09/17 00:25:11;;;;;;;4.30;2.17;;;28.30;27.80;;;;;;5058221;28;20025;-78
2023/09/17 00:27:41;;;;;;;3.30;2.40;;;28.30;27.70;;;;;;5059452;28;20032;-78
2023/09/17 00:30:13;;;;;;;5.05;2.40;;;28.30;27.40;;;;;;5062537;28;20070;-85
2023/09/17 00:32:41;;;;;;;3.38;1.98;;;28.40;28.20;;;;;;5065369;28;20062;-78
2023/09/17 00:35:14;;;;;;;5.63;2.30;;;28.40;27.20;;;;;;5057663;28;20041;-79
2023/09/17 00:37:44;;;;;;;2.42;1.98;;;28.50;27.30;;;;;;5062169;28;20127;-78
2023/09/17 00:40:12;;;;;;;3.05;2.10;;;28.60;27.70;;;;;;5066930;28;20067;-80
2023/09/17 00:42:43;;;;;;;3.70;2.00;;;28.80;26.70;;;;;;5066279;28;20078;-77
2023/09/17 00:45:12;;;;;;;4.85;2.00;;;28.90;26.50;;;;;;5067533;28;20056;-79
2023/09/17 00:47:42;;;;;;;5.07;2.30;;;29.20;25.90;;;;;;5065608;28;20074;-76
2023/09/17 00:50:10;;;;;;;2.92;1.95;;;29.30;25.00;;;;;;5068844;28;20024;-75
2023/09/17 00:52:39;;;;;;;3.30;2.22;;;29.30;26.00;;;;;;5068818;28;20075;-81
2023/09/17 00:55:09;;;;;;;3.58;2.10;;;29.40;26.10;;;;;;5059829;28;20555;-80
2023/09/17 00:57:39;;;;;;;3.60;2.10;;;29.60;25.30;;;;;;5071102;28;20028;-81
2023/09/17 01:00:09;;;;;;;3.83;1.90;;;29.60;25.40;;;;;;5065499;28;20481;-78
2023/09/17 01:02:39;;;;;;;4.82;2.10;;;29.80;24.30;;;;;;5054368;28;20017;-79
2023/09/17 01:05:08;;;;;;;3.22;2.15;;;29.90;23.80;;;;;;5054632;28;20031;-79
2023/09/17 01:07:36;;;;;;;4.47;2.22;;;30.20;24.80;;;;;;5053878;28;20029;-81
2023/09/17 01:10:04;;;;;;;4.10;2.33;;;30.00;23.80;;;;;;5058514;28;20472;-83
2023/09/17 01:12:32;;;;;;;4.95;1.90;;;30.00;24.10;;;;;;5060723;28;20043;-79
2023/09/17 01:15:01;;;;;;;4.82;1.90;;;30.10;24.00;;;;;;5058947;28;20067;-79
2023/09/17 01:17:30;;;;;;;3.63;2.10;;;30.10;24.10;;;;;;5069819;28;20476;-83
2023/09/17 01:19:59;;;;;;;2.60;2.00;;;30.20;23.70;;;;;;5067872;28;20071;-77
2023/09/17 01:22:34;;;;;;;4.47;1.85;;;30.30;23.90;;;;;;5063446;28;20036;-81
2023/09/17 01:25:15;;;;;;;7.28;1.95;;;30.40;23.60;;;;;;5057808;28;20031;-80
2023/09/17 01:27:45;;;;;;;3.10;2.00;;;30.50;22.70;;;;;;5060893;28;20700;-78
2023/09/17 01:30:15;;;;;;;3.65;2.20;;;30.50;23.00;;;;;;5058842;28;20021;-81
2023/09/17 01:32:46;;;;;;;8.02;2.83;;;30.60;23.10;;;;;;5066997;28;20040;-79
2023/09/17 01:35:18;;;;;;;3.42;2.00;;;30.50;25.30;;;;;;5067494;28;20044;-80
2023/09/17 01:37:59;;;;;;;3.03;2.15;;;30.50;24.00;;;;;;5053511;28;20028;-82
2023/09/17 01:40:27;;;;;;;4.53;2.35;;;30.60;23.10;;;;;;5057188;28;20067;-81
2023/09/17 01:42:57;;;;;;;2.88;1.70;;;30.60;22.60;;;;;;5063741;28;20033;-82
2023/09/17 01:45:26;;;;;;;2.13;1.90;;;30.70;23.20;;;;;;5061196;28;20032;-85
2023/09/17 01:47:54;;;;;;;5.25;2.20;;;30.80;22.80;;;;;;5069254;28;20065;-84
2023/09/17 01:50:24;;;;;;;3.47;2.15;;;30.90;21.80;;;;;;5057200;28;20391;-79
2023/09/17 01:52:53;;;;;;;2.40;1.90;;;31.00;21.50;;;;;;5052774;28;20021;-81
2023/09/17 01:55:22;;;;;;;2.40;1.70;;;31.10;21.00;;;;;;5054766;28;20043;-83
2023/09/17 01:57:52;;;;;;;2.78;1.80;;;31.00;21.10;;;;;;5065266;28;20032;-79
2023/09/17 02:00:19;;;;;;;2.25;1.70;;;30.90;21.30;;;;;;5072524;28;20041;-80
2023/09/17 02:02:49;;;;;;;5.65;2.20;;;30.80;21.30;;;;;;5073798;28;20033;-80
2023/09/17 02:05:17;;;;;;;1.95;1.80;;;30.90;20.40;;;;;;5074629;28;20025;-83
2023/09/17 02:07:45;;;;;;;2.70;1.92;;;31.00;22.10;;;;;;5073605;28;20487;-82
2023/09/17 02:10:13;;;;;;;2.17;1.75;;;31.10;20.50;;;;;;5076759;28;20031;-80
2023/09/17 02:12:45;;;;;;;3.08;1.67;;;31.00;20.30;;;;;;5060681;28;20119;-80
2023/09/17 02:15:16;;;;;;;2.67;1.90;;;30.90;20.10;;;;;;5054004;28;20064;-79
2023/09/17 02:17:43;;;;;;;1.60;1.45;;;30.90;20.40;;;;;;5053411;28;20039;-78
2023/09/17 02:20:11;;;;;;;3.80;1.88;;;30.90;20.30;;;;;;5053597;28;20472;-80
2023/09/17 02:22:39;;;;;;;4.22;1.83;;;31.00;20.70;;;;;;5052996;28;20021;-80
2023/09/17 02:25:07;;;;;;;1.40;1.30;;;30.80;19.70;;;;;;5053212;28;20361;-83
2023/09/17 02:27:35;;;;;;;1.92;1.30;;;30.90;19.90;;;;;;5053202;28;20021;-80
2023/09/17 02:30:04;;;;;;;2.53;1.40;;;30.80;18.80;;;;;;5057205;28;20016;-79
2023/09/17 02:32:37;;;;;;;1.85;1.38;;;30.80;19.50;;;;;;5073029;28;20029;-81
2023/09/17 02:35:07;;;;;;;3.28;1.63;;;30.80;20.00;;;;;;5071047;28;20043;-79
2023/09/17 02:37:36;;;;;;;2.65;1.40;;;30.70;19.40;;;;;;5072362;28;20021;-80
2023/09/17 02:40:08;;;;;;;3.05;1.30;;;30.60;19.30;;;;;;5072557;28;20094;-79
2023/09/17 02:42:39;;;;;;;3.75;1.40;;;30.70;19.20;;;;;;5072870;28;20021;-84
2023/09/17 02:45:08;;;;;;;4.28;1.58;;;30.80;19.70;;;;;;5072696;28;20027;-80
2023/09/17 02:47:36;;;;;;;1.63;1.20;;;30.90;19.30;;;;;;5072902;28;20134;-82
2023/09/17 02:50:04;;;;;;;1.63;1.52;;;30.90;19.40;;;;;;5073288;28;20036;-81
2023/09/17 02:52:32;;;;;;;2.88;1.70;;;31.00;19.20;;;;;;5073640;28;20025;-83
2023/09/17 02:54:59;;;;;;;1.52;1.23;;;31.00;20.10;;;;;;5072896;28;20031;-79
2023/09/17 02:57:28;;;;;;;2.42;1.40;;;31.20;19.70;;;;;;5074507;28;20376;-80
2023/09/17 02:59:57;;;;;;;1.38;1.27;;;31.30;19.30;;;;;;5073545;28;20083;-81
2023/09/17 03:02:25;;;;;;;1.85;1.50;;;31.30;18.70;;;;;;5076830;28;20017;-80
2023/09/17 03:04:56;;;;;;;2.88;1.15;;;31.30;18.80;;;;;;5078107;28;20088;-79
2023/09/17 03:07:24;;;;;;;1.45;1.08;;;31.30;18.80;;;;;;5077380;28;20427;-79
2023/09/17 03:09:51;;;;;;;1.77;1.15;;;31.30;19.50;;;;;;5076971;28;20032;-82
2023/09/17 03:12:19;;;;;;;2.80;1.25;;;31.30;19.50;;;;;;5076268;28;20054;-82
2023/09/17 03:14:46;;;;;;;2.35;1.40;;;31.30;18.90;;;;;;5076588;28;20028;-78
2023/09/17 03:17:13;;;;;;;5.47;1.60;;;31.30;19.30;;;;;;5076685;28;20078;-79
2023/09/17 03:19:42;;;;;;;3.03;1.63;;;31.50;18.90;;;;;;5076384;28;20045;-79
2023/09/17 03:22:09;;;;;;;2.85;1.10;;;31.50;19.00;;;;;;5076465;28;20017;-79
2023/09/17 03:24:37;;;;;;;2.00;1.30;;;31.60;19.20;;;;;;5076630;28;20059;-79
2023/09/17 03:27:05;;;;;;;1.35;1.15;;;31.70;19.80;;;;;;5077209;28;20025;-79
2023/09/17 03:29:32;;;;;;;2.92;1.40;;;31.80;19.40;;;;;;5078434;28;20028;-81
2023/09/17 03:32:01;;;;;;;1.45;1.00;;;31.80;18.80;;;;;;5062400;28;20078;-79
2023/09/17 03:34:28;;;;;;;1.25;1.10;;;31.80;18.50;;;;;;5057250;28;20067;-78
2023/09/17 03:36:58;;;;;;;2.58;1.70;;;31.80;19.00;;;;;;5058772;28;20045;-79
2023/09/17 03:39:25;;;;;;;1.05;1.00;;;31.90;19.20;;;;;;5062837;28;20021;-80
2023/09/17 03:41:53;;;;;;;2.45;1.48;;;32.10;17.90;;;;;;5058439;28;20093;-79
2023/09/17 03:44:20;;;;;;;2.15;1.15;;;32.00;18.20;;;;;;5060598;28;20028;-79
2023/09/17 03:46:48;;;;;;;2.70;1.27;;;32.00;18.40;;;;;;5059510;28;20033;-78
2023/09/17 03:49:16;;;;;;;2.83;1.15;;;32.00;18.60;;;;;;5066256;28;20024;-78
2023/09/17 03:51:43;;;;;;;2.45;1.30;;;32.00;19.10;;;;;;5068654;28;20024;-80
2023/09/17 03:54:10;;;;;;;1.27;1.17;;;32.10;18.90;;;;;;5077933;28;20028;-81
2023/09/17 03:56:38;;;;;;;2.03;1.20;;;32.20;18.90;;;;;;5078437;28;20495;-79
2023/09/17 03:59:09;;;;;;;2.80;1.35;;;32.10;17.90;;;;;;5078041;28;20024;-81
2023/09/17 04:01:39;;;;;;;1.57;1.27;;;32.00;18.10;;;;;;5077259;28;20055;-83
2023/09/17 04:04:13;;;;;;;1.30;1.20;;;32.00;17.60;;;;;;5077465;28;20256;-82
2023/09/17 04:06:41;;;;;;;1.37;1.23;;;31.90;18.30;;;;;;5077717;28;20035;-79
2023/09/17 04:09:09;;;;;;;1.60;1.50;;;32.00;18.60;;;;;;5081638;28;20039;-78
2023/09/17 04:11:36;;;;;;;2.00;1.48;;;32.10;17.70;;;;;;5081543;28;20029;-79
2023/09/17 04:14:06;;;;;;;1.20;1.10;;;32.10;18.00;;;;;;5078560;28;20020;-82
2023/09/17 04:16:39;;;;;;;2.03;1.20;;;32.30;18.30;;;;;;5077919;28;20024;-80
2023/09/17 04:19:06;;;;;;;1.88;1.20;;;32.30;17.70;;;;;;5081408;28;20033;-82
2023/09/17 04:21:34;;;;;;;2.83;1.10;;;32.40;18.70;;;;;;5074552;28;20340;-81
2023/09/17 04:24:03;;;;;;;2.95;1.20;;;32.50;17.80;;;;;;5069345;28;20017;-81
2023/09/17 04:26:30;;;;;;;1.15;1.05;;;32.60;17.60;;;;;;5054793;28;20376;-82
2023/09/17 04:28:58;;;;;;;2.75;1.20;;;32.70;17.40;;;;;;5054982;28;20025;-81
2023/09/17 04:31:25;;;;;;;1.33;1.20;;;32.70;17.60;;;;;;5054789;28;20021;-81
2023/09/17 04:33:52;;;;;;;1.65;1.10;;;32.60;16.90;;;;;;5054749;28;20473;-83
2023/09/17 04:36:21;;;;;;;2.38;1.33;;;32.60;17.60;;;;;;5054394;28;20554;-81
2023/09/17 04:38:48;;;;;;;2.35;1.35;;;32.70;17.20;;;;;;5054744;28;20098;-82
2023/09/17 04:41:16;;;;;;;1.63;1.20;;;32.80;17.30;;;;;;5059593;28;20344;-81
2023/09/17 04:43:43;;;;;;;1.50;1.20;;;32.90;18.00;;;;;;5074810;28;20028;-82
2023/09/17 04:46:12;;;;;;;1.92;1.38;;;33.10;16.80;;;;;;5074645;28;20085;-82
2023/09/17 04:48:40;;;;;;;1.50;1.20;;;33.10;16.80;;;;;;5075192;28;20044;-82
2023/09/17 04:51:07;;;;;;;2.53;1.33;;;33.10;17.00;;;;;;5072318;28;20082;-83
2023/09/17 04:53:35;;;;;;;3.45;1.05;;;33.10;17.10;;;;;;5075251;28;20074;-84
2023/09/17 04:56:03;;;;;;;2.15;1.10;;;33.20;16.70;;;;;;5075857;28;20066;-84
2023/09/17 04:58:32;;;;;;;2.13;1.20;;;33.10;17.10;;;;;;5074345;28;20025;-81
2023/09/17 05:00:59;;;;;;;1.60;1.05;;;33.10;17.90;;;;;;5073791;28;20071;-80
2023/09/17 05:03:27;;;;;;;1.75;1.08;;;33.30;17.40;;;;;;5074202;28;20456;-81
2023/09/17 05:05:54;;;;;;;2.72;1.20;;;33.30;17.30;;;;;;5074562;28;20025;-80
2023/09/17 05:08:22;;;;;;;1.45;1.10;;;33.30;17.40;;;;;;5076052;28;20020;-80
2023/09/17 05:10:49;;;;;;;1.13;1.00;;;33.30;16.90;;;;;;5076078;28;20032;-85
2023/09/17 05:13:17;;;;;;;0.90;0.90;;;33.30;17.80;;;;;;5078181;28;20060;-80
2023/09/17 05:15:44;;;;;;;1.50;1.05;;;33.30;16.80;;;;;;5079046;28;20021;-81
2023/09/17 05:18:12;;;;;;;2.00;1.25;;;33.30;16.70;;;;;;5077081;28;20077;-83
2023/09/17 05:20:43;;;;;;;1.10;1.00;;;33.30;16.60;;;;;;5073492;28;20037;-83
2023/09/17 05:23:17;;;;;;;1.27;1.10;;;33.20;16.40;;;;;;5057323;28;20032;-80
2023/09/17 05:25:44;;;;;;;2.45;1.17;;;33.20;16.80;;;;;;5057036;28;20039;-81
2023/09/17 05:28:14;;;;;;;2.17;1.13;;;33.20;17.50;;;;;;5059004;28;20029;-81
2023/09/17 05:30:42;;;;;;;3.65;1.45;;;33.30;17.50;;;;;;5055110;28;20422;-80
2023/09/17 05:33:10;;;;;;;2.33;1.00;;;33.20;16.70;;;;;;5069269;28;20029;-80
2023/09/17 05:35:37;;;;;;;1.20;1.10;;;33.20;17.60;;;;;;5074329;28;20392;-81
2023/09/17 05:38:05;;;;;;;1.35;1.20;;;33.20;17.60;;;;;;5074497;28;20468;-80
2023/09/17 05:40:32;;;;;;;2.00;1.10;;;33.10;16.80;;;;;;5073852;28;20041;-80
2023/09/17 05:43:00;;;;;;;1.33;0.90;;;33.00;17.60;;;;;;5073985;28;20028;-80
2023/09/17 05:45:27;;;;;;;0.90;0.90;;;33.10;17.40;;;;;;5072443;28;20090;-81
2023/09/17 05:47:54;;;;;;;3.22;1.15;;;33.10;17.40;;;;;;5063777;28;20060;-82
2023/09/17 05:50:22;;;;;;;1.30;1.10;;;33.10;17.00;;;;;;5053282;28;20048;-81
2023/09/17 05:52:50;;;;;;;4.53;1.00;;;33.00;16.80;;;;;;5053349;28;20025;-79
2023/09/17 05:55:18;;;;;;;2.08;1.20;;;32.90;17.20;;;;;;5054464;28;20028;-84
2023/09/17 05:57:45;;;;;;;3.10;1.25;;;32.80;17.30;;;;;;5073435;28;20044;-85
2023/09/17 06:00:14;;;;;;;1.00;1.00;;;32.70;16.90;;;;;;5073179;28;20478;-81
2023/09/17 06:02:46;;;;;;;1.10;1.00;;;32.50;17.60;;;;;;5073067;28;20024;-80
2023/09/17 06:05:17;;;;;;;1.23;0.70;;;32.50;16.40;;;;;;5073396;28;20024;-80
2023/09/17 06:07:44;;;;;;;0.70;0.70;;;32.30;15.20;;;;;;5073070;28;20033;-79
2023/09/17 06:10:13;;;;;;;2.70;0.75;;;32.30;15.00;;;;;;5070445;28;20044;-83
2023/09/17 06:12:41;;;;;;;1.70;1.00;;;32.20;15.00;;;;;;5053220;28;20025;-84
2023/09/17 06:15:10;;;;;;;1.70;0.88;;;32.10;15.10;;;;;;5053320;28;20032;-80
2023/09/17 06:17:37;;;;;;;2.97;0.80;;;32.10;15.20;;;;;;5052890;28;20028;-80
2023/09/17 06:20:06;;;;;;;1.17;0.80;;;32.00;14.60;;;;;;5052990;28;20033;-83
2023/09/17 06:22:33;;;;;;;0.98;0.70;;;32.00;14.90;;;;;;5067739;28;20033;-84
2023/09/17 06:25:01;;;;;;;1.02;0.80;;;32.00;14.90;;;;;;5072736;28;20394;-84
2023/09/17 06:27:29;;;;;;;1.50;0.73;;;31.90;14.70;;;;;;5072849;28;20024;-82
2023/09/17 06:29:57;;;;;;;1.13;0.90;;;31.90;15.30;;;;;;5073154;28;20048;-77
2023/09/17 06:32:24;;;;;;;0.93;0.82;;;31.90;15.30;;;;;;5072588;28;20031;-79
2023/09/17 06:34:53;;;;;;;4.97;1.00;;;31.80;15.40;;;;;;5073297;28;20116;-77
2023/09/17 06:37:21;;;;;;;0.90;0.70;;;31.80;15.30;;;;;;5059567;28;20079;-84
2023/09/17 06:39:51;;;;;;;1.40;0.90;;;31.70;15.30;;;;;;5055628;28;20037;-78
2023/09/17 06:42:19;;;;;;;0.77;0.70;;;31.60;15.50;;;;;;5057272;28;20496;-79
2023/09/17 06:44:46;;;;;;;0.75;0.70;;;31.50;15.80;;;;;;5057231;28;20077;-81
2023/09/17 06:47:14;;;;;;;0.90;0.80;;;31.50;15.90;;;;;;5061979;28;20020;-80
2023/09/17 06:49:41;;;;;;;2.97;1.08;;;31.40;16.00;;;;;;5076832;28;20107;-84
2023/09/17 06:52:08;;;;;;;1.60;1.10;;;31.30;17.20;;;;;;5077576;28;20048;-80
2023/09/17 06:54:37;;;;;;;7.45;1.52;;;31.20;20.00;;;;;;5076846;28;20028;-82
2023/09/17 06:57:04;;;;;;;4.60;1.50;;;31.10;20.30;;;;;;5076501;28;20074;-83
2023/09/17 06:59:33;;;;;;;5.32;2.05;;;30.90;20.60;;;;;;5067347;28;20028;-78
2023/09/17 07:02:00;;;;;;;2.95;1.80;;;30.80;21.30;;;;;;5060616;28;20037;-77
2023/09/17 07:04:27;;;;;;;3.35;1.80;;;30.70;22.10;;;;;;5055804;28;20028;-78
2023/09/17 07:07:00;;;;;;;3.28;1.95;;;30.60;23.60;;;;;;5056154;28;20036;-82
2023/09/17 07:09:29;;;;;;;2.83;2.00;;;30.50;23.40;;;;;;5055984;28;20025;-79
2023/09/17 07:11:57;;;;;;;5.78;1.92;;;30.40;23.60;;;;;;5058984;28;20021;-84
2023/09/17 07:14:27;;;;;;;2.97;1.90;;;30.30;23.70;;;;;;5069949;28;20036;-79
2023/09/17 07:16:55;;;;;;;3.17;2.25;;;30.20;23.40;;;;;;5056535;28;20074;-77
2023/09/17 07:19:22;;;;;;;3.58;1.90;;;30.10;24.40;;;;;;5062709;28;20126;-81
2023/09/17 07:21:50;;;;;;;5.15;2.30;;;30.00;24.80;;;;;;5066394;28;20048;-75
2023/09/17 07:24:18;;;;;;;4.80;2.35;;;29.80;25.20;;;;;;5065799;28;20039;-78
2023/09/17 07:26:46;;;;;;;6.70;2.20;;;29.70;26.20;;;;;;5076575;28;20036;-77
2023/09/17 07:29:14;;;;;;;4.55;2.50;;;29.60;26.40;;;;;;5073257;28;20105;-79
2023/09/17 07:31:44;;;;;;;4.65;2.67;;;29.40;26.20;;;;;;5058117;28;20127;-82
2023/09/17 07:34:11;;;;;;;4.00;2.50;;;29.30;26.50;;;;;;5055875;28;20021;-80
2023/09/17 07:36:39;;;;;;;4.30;2.08;;;29.20;26.30;;;;;;5058037;28;20491;-81
2023/09/17 07:39:06;;;;;;;3.10;2.28;;;29.00;26.50;;;;;;5057169;28;20124;-87
2023/09/17 07:41:34;;;;;;;6.55;2.42;;;28.90;26.90;;;;;;5065631;28;20425;-77
2023/09/17 07:44:02;;;;;;;4.57;2.50;;;28.80;27.20;;;;;;5074350;28;20082;-84
2023/09/17 07:46:29;;;;;;;8.32;2.85;;;28.70;27.40;;;;;;5070957;28;20265;-77
2023/09/17 07:48:57;;;;;;;4.32;2.10;;;28.60;27.60;;;;;;5075634;28;20424;-77
2023/09/17 07:51:24;;;;;;;5.65;3.35;;;28.50;29.30;;;;;;5069177;28;20052;-78
2023/09/17 07:53:52;;;;;;;6.75;3.45;;;28.30;28.80;;;;;;5063048;28;20032;-76
2023/09/17 07:56:19;;;;;;;9.68;3.38;;;28.30;28.90;;;;;;5072497;28;20455;-76
2023/09/17 07:58:47;;;;;;;3.90;2.80;;;28.10;29.50;;;;;;5075805;28;20020;-78
2023/09/17 08:01:15;;;;;;;6.63;3.38;;;28.00;32.00;;;;;;5071807;28;20032;-76
2023/09/17 08:03:43;;;;;;;5.88;3.20;;;27.90;32.20;;;;;;5062976;28;20147;-76
2023/09/17 08:06:12;;;;;;;4.43;3.38;;;27.80;32.80;;;;;;5077781;28;20487;-77
2023/09/17 08:08:45;;;;;;;6.68;4.22;;;27.80;32.50;;;;;;5077273;28;20031;-77
2023/09/17 08:11:16;;;;;;;4.93;4.43;;;27.70;32.70;;;;;;5059793;28;20036;-76
2023/09/17 08:13:43;;;;;;;9.98;4.63;;;27.50;34.10;;;;;;5055558;28;20053;-78
2023/09/17 08:16:11;;;;;;;8.32;4.68;;;27.40;34.70;;;;;;5054638;28;20032;-81
2023/09/17 08:18:38;;;;;;;6.75;4.00;;;27.30;35.10;;;;;;5079690;28;20373;-77
2023/09/17 08:21:05;;;;;;;5.90;3.30;;;27.20;35.50;;;;;;5062595;28;20730;-77
2023/09/17 08:23:34;;;;;;;4.50;3.05;;;27.20;36.00;;;;;;5067659;28;20107;-82
2023/09/17 08:26:04;;;;;;;5.97;3.33;;;27.10;36.40;;;;;;5062483;28;20051;-83
2023/09/17 08:28:31;;;;;;;6.13;3.63;;;27.00;36.80;;;;;;5054553;28;20032;-80
2023/09/17 08:31:00;;;;;;;6.40;3.25;;;26.90;37.20;;;;;;5054391;28;20036;-80
2023/09/17 08:33:28;;;;;;;6.45;3.58;;;26.90;37.40;;;;;;5054412;28;20059;-81
2023/09/17 08:35:55;;;;;;;7.05;4.25;;;26.80;38.00;;;;;;5054901;28;20469;-86
2023/09/17 08:38:22;;;;;;;7.78;4.35;;;26.80;38.10;;;;;;5058073;28;20033;-85
2023/09/17 08:40:51;;;;;;;8.48;3.50;;;26.70;38.30;;;;;;5056605;28;20519;-83
2023/09/17 08:43:18;;;;;;;5.93;3.60;;;26.60;38.70;;;;;;5054449;28;20033;-77
2023/09/17 08:45:46;;;;;;;9.20;3.83;;;26.50;38.90;;;;;;5058812;28;20043;-77
2023/09/17 08:48:13;;;;;;;8.98;4.13;;;26.40;39.10;;;;;;5072016;28;20051;-77
2023/09/17 08:50:42;;;;;;;10.45;3.92;;;26.30;39.30;;;;;;5055383;28;20033;-79
2023/09/17 08:53:12;;;;;;;8.27;4.03;;;26.20;39.60;;;;;;5054180;28;20092;-81
2023/09/17 08:55:40;;;;;;;5.72;3.90;;;26.00;39.90;;;;;;5059449;28;20037;-80
2023/09/17 08:58:16;;;;;;;6.38;3.50;;;25.90;39.90;;;;;;5061223;28;20070;-81
2023/09/17 09:00:52;;;;;;;6.32;3.90;;;25.80;39.90;;;;;;5056119;28;20436;-80
2023/09/17 09:03:23;;;;;;;8.88;4.47;;;25.80;40.20;;;;;;5053995;28;20037;-76
2023/09/17 09:05:55;;;;;;;7.30;3.83;;;25.60;40.50;;;;;;5054367;28;20531;-81
2023/09/17 09:08:23;;;;;;;7.78;4.30;;;25.60;40.70;;;;;;5054452;28;20090;-78
2023/09/17 09:10:51;;;;;;;11.68;3.97;;;25.50;41.00;;;;;;5059230;28;20014;-77
2023/09/17 09:13:21;;;;;;;7.68;3.97;;;25.30;41.00;;;;;;5069876;28;20036;-80
2023/09/17 09:15:49;;;;;;;7.18;3.90;;;25.30;41.20;;;;;;5073568;28;20070;-82
2023/09/17 09:18:17;;;;;;;6.45;3.70;;;25.20;41.40;;;;;;5072105;28;20043;-78
2023/09/17 09:20:44;;;;;;;6.70;3.58;;;25.10;42.20;;;;;;5061374;28;20043;-78
2023/09/17 09:23:12;;;;;;;8.82;3.40;;;25.00;41.90;;;;;;5053483;28;20025;-77
2023/09/17 09:25:40;;;;;;;7.30;3.80;;;24.90;42.10;;;;;;5053559;28;20036;-76
2023/09/17 09:28:07;;;;;;;8.27;3.70;;;24.80;42.20;;;;;;5057860;28;20116;-78
2023/09/17 09:30:37;;;;;;;6.43;4.32;;;24.80;42.50;;;;;;5062852;28;20054;-80
2023/09/17 09:33:05;;;;;;;12.43;4.40;;;24.60;42.70;;;;;;5053194;28;20028;-78
2023/09/17 09:35:32;;;;;;;13.60;4.63;;;24.50;43.00;;;;;;5053011;28;20156;-81
2023/09/17 09:38:02;;;;;;;7.20;4.65;;;24.50;43.30;;;;;;5054207;28;20090;-80
2023/09/17 09:40:34;;;;;;;9.55;4.47;;;24.40;43.50;;;;;;5061393;28;20403;-83
2023/09/17 09:43:03;;;;;;;10.43;5.13;;;24.30;44.50;;;;;;5053307;28;20027;-81
2023/09/17 09:45:30;;;;;;;8.10;5.15;;;24.30;43.90;;;;;;5080833;28;20030;-77
2023/09/17 09:47:58;;;;;;;8.27;4.63;;;24.30;44.20;;;;;;5071248;28;20033;-78
2023/09/17 09:50:28;;;;;;;9.57;6.07;;;24.20;44.30;;;;;;5070542;28;20411;-80
2023/09/17 09:52:55;;;;;;;12.50;6.35;;;24.10;44.50;;;;;;5070647;28;20020;-76
2023/09/17 09:55:30;;;;;;;16.50;9.70;;;24.00;45.30;;;;;;5072490;28;20021;-80
2023/09/17 09:57:57;;;;;;;14.70;10.23;;;24.00;45.00;;;;;;5066493;28;20414;-78
2023/09/17 10:00:29;;;;;;;16.80;8.23;;;24.00;45.10;;;;;;5065674;28;20395;-79
2023/09/17 10:02:57;;;;;;;18.50;8.90;;;23.80;45.70;;;;;;5071219;28;20051;-83
2023/09/17 10:05:39;;;;;;;17.20;9.10;;;23.80;45.30;;;;;;5072817;28;20023;-78
2023/09/17 10:08:10;;;;;;;15.13;7.60;;;23.70;45.30;;;;;;5068696;28;20039;-79
2023/09/17 10:10:39;;;;;;;14.05;7.78;;;23.70;46.20;;;;;;5057978;28;20454;-81
2023/09/17 10:13:12;;;;;;;11.93;7.88;;;23.60;45.70;;;;;;5061512;28;20036;-83
2023/09/17 10:15:45;;;;;;;13.57;7.80;;;23.60;46.00;;;;;;5052106;28;20519;-78
2023/09/17 10:18:14;;;;;;;11.85;7.10;;;23.60;46.20;;;;;;5051910;28;20044;-79
2023/09/17 10:20:43;;;;;;;12.15;8.00;;;23.50;46.00;;;;;;5052585;28;20424;-80
2023/09/17 10:23:15;;;;;;;16.60;7.97;;;23.50;46.60;;;;;;5052844;28;20025;-80
2023/09/17 10:25:44;;;;;;;13.52;8.10;;;23.30;46.40;;;;;;5056379;28;20522;-78
2023/09/17 10:28:13;;;;;;;19.35;8.20;;;23.40;47.00;;;;;;5052541;28;20025;-79
2023/09/17 10:30:45;;;;;;;16.10;8.52;;;23.40;46.60;;;;;;5052271;28;20395;-82
2023/09/17 10:33:16;;;;;;;13.70;7.70;;;23.30;46.60;;;;;;5052087;28;20029;-79
2023/09/17 10:35:45;;;;;;;18.20;7.90;;;23.30;46.80;;;;;;5061039;28;20033;-77
2023/09/17 10:38:15;;;;;;;15.77;8.38;;;23.20;47.30;;;;;;5072727;28;20391;-79
2023/09/17 10:40:43;;;;;;;14.52;8.23;;;23.20;47.00;;;;;;5061698;28;20033;-82
2023/09/17 10:43:11;;;;;;;15.88;8.65;;;23.10;47.10;;;;;;5051979;28;20117;-79
2023/09/17 10:45:39;;;;;;;17.10;8.90;;;23.20;47.30;;;;;;5070082;28;20031;-87
2023/09/17 10:48:08;;;;;;;17.38;8.73;;;23.10;47.40;;;;;;5057805;28;20060;-83
2023/09/17 10:50:36;;;;;;;15.77;8.13;;;23.00;47.50;;;;;;5052634;28;20021;-80
2023/09/17 10:53:07;;;;;;;17.67;9.60;;;23.00;47.80;;;;;;5060956;28;20022;-82
2023/09/17 10:55:44;;;;;;;18.38;9.23;;;23.00;47.60;;;;;;5052864;28;20060;-79
2023/09/17 10:58:17;;;;;;;20.35;9.85;;;22.90;47.10;;;;;;5052346;28;20033;-78
2023/09/17 11:00:46;;;;;;;17.60;10.80;;;22.80;47.20;;;;;;5059623;28;20392;-79
2023/09/17 11:03:18;;;;;;;17.50;9.70;;;22.80;47.10;;;;;;5051672;28;20025;-78
2023/09/17 11:05:46;;;;;;;18.15;10.23;;;22.80;47.90;;;;;;5080564;28;20067;-79
2023/09/17 11:08:14;;;;;;;23.67;10.55;;;22.80;47.10;;;;;;5078140;28;20031;-78
2023/09/17 11:10:42;;;;;;;14.77;8.38;;;22.70;46.90;;;;;;5056094;28;20025;-82
2023/09/17 11:13:15;;;;;;;17.40;9.00;;;22.70;46.60;;;;;;5052324;28;20025;-78
2023/09/17 11:15:43;;;;;;;16.00;8.68;;;22.70;46.60;;;;;;5052424;28;20021;-79
2023/09/17 11:18:11;;;;;;;16.80;8.13;;;22.70;46.80;;;;;;5052818;28;20544;-81
2023/09/17 11:21:04;;;;;;;17.15;8.77;;;22.80;47.50;;;;;;5066377;28;20036;-81
2023/09/17 11:23:46;;;;;;;15.10;8.38;;;22.80;46.60;;;;;;5075848;28;20032;-81
2023/09/17 11:26:26;;;;;;;12.48;7.53;;;22.80;46.60;;;;;;5075305;28;20020;-80
2023/09/17 11:28:58;;;;;;;16.05;7.75;;;22.80;46.30;;;;;;5075871;28;20024;-77
2023/09/17 11:31:29;;;;;;;10.50;7.50;;;22.70;45.90;;;;;;5075494;28;20021;-77
2023/09/17 11:33:57;;;;;;;15.95;7.45;;;22.70;45.70;;;;;;5076023;28;20029;-78
2023/09/17 11:36:25;;;;;;;14.80;7.68;;;22.60;46.00;;;;;;5075620;28;20044;-81
2023/09/17 11:38:53;;;;;;;10.48;7.15;;;22.60;46.10;;;;;;5076202;28;20021;-79
2023/09/17 11:41:29;;;;;;;12.68;7.47;;;22.60;47.60;;;;;;5076025;28;20067;-80
2023/09/17 11:43:58;;;;;;;16.27;8.43;;;22.50;47.10;;;;;;5073842;28;20021;-79
2023/09/17 11:46:25;;;;;;;16.67;8.45;;;22.40;47.60;;;;;;5075953;28;20055;-78
2023/09/17 11:48:53;;;;;;;15.60;8.60;;;22.40;47.60;;;;;;5075339;28;20028;-78
2023/09/17 11:51:26;;;;;;;17.85;9.48;;;22.40;47.50;;;;;;5075556;28;20552;-77
2023/09/17 11:53:59;;;;;;;15.60;8.52;;;22.30;47.40;;;;;;5075491;28;20020;-79
2023/09/17 11:56:46;;;;;;;16.98;8.18;;;22.30;48.40;;;;;;5075559;28;20098;-77
2023/09/17 11:59:16;;;;;;;18.17;8.57;;;22.30;47.80;;;;;;5075148;28;20043;-77
2023/09/17 12:01:47;;;;;;;16.30;8.15;;;22.30;48.20;;;;;;5070926;28;20034;-86
2023/09/17 12:04:15;;;;;;;14.88;8.73;;;22.20;48.40;;;;;;5059926;28;20017;-77
2023/09/17 12:06:46;;;;;;;17.38;8.80;;;22.20;47.70;;;;;;5063765;28;20467;-77
2023/09/17 12:09:20;;;;;;;17.80;9.02;;;22.20;47.80;;;;;;5069953;28;20027;-77
2023/09/17 12:11:48;;;;;;;14.88;8.05;;;22.30;48.30;;;;;;5069730;28;20021;-76
2023/09/17 12:14:16;;;;;;;15.63;8.85;;;22.20;47.30;;;;;;5069384;28;20040;-78
2023/09/17 12:16:46;;;;;;;17.80;8.63;;;22.10;47.70;;;;;;5070406;28;20119;-78
2023/09/17 12:19:14;;;;;;;15.43;7.97;;;22.10;48.20;;;;;;5069459;28;20040;-78
2023/09/17 12:21:44;;;;;;;14.95;7.93;;;22.00;47.90;;;;;;5073531;28;20024;-77
2023/09/17 12:24:48;;;;;;;13.32;7.65;;;21.80;48.40;;;;;;5072486;28;20467;-81
2023/09/17 12:27:25;;;;;;;16.65;8.98;;;21.80;49.40;;;;;;5071032;28;20044;-76
2023/09/17 12:29:56;;;;;;;14.93;7.88;;;21.80;48.50;;;;;;5074097;28;20041;-79
2023/09/17 12:32:34;;;;;;;12.70;8.32;;;21.70;49.40;;;;;;5071509;28;20028;-84
2023/09/17 12:35:03;;;;;;;15.77;8.30;;;21.60;50.40;;;;;;5071993;28;20032;-84
2023/09/17 12:37:30;;;;;;;20.33;8.18;;;21.60;49.80;;;;;;5071056;28;20033;-78
2023/09/17 12:39:57;;;;;;;17.27;8.48;;;21.50;50.00;;;;;;5073429;28;20032;-82
2023/09/17 12:42:25;;;;;;;12.77;7.75;;;21.40;50.00;;;;;;5069406;28;20032;-84
2023/09/17 12:44:53;;;;;;;10.75;6.38;;;21.40;51.20;;;;;;5073844;28;20165;-78
2023/09/17 12:47:24;;;;;;;11.80;5.43;;;21.40;51.00;;;;;;5073198;28;20020;-82
2023/09/17 12:49:55;;;;;;;10.95;5.13;;;21.50;51.60;;;;;;5069766;28;20025;-77
2023/09/17 12:52:22;;;;;;;9.55;4.80;;;21.50;52.10;;;;;;5070162;28;20524;-80